createdAt,value
2023-01-29T00:00:11.230Z,0.97
2023-01-29T00:02:42.230Z,0.93
2023-01-29T00:05:26.419Z,0.84
2023-01-29T00:07:56.731Z,0.86
2023-01-29T00:10:27.453Z,0.84
2023-01-29T00:12:55.561Z,0.92
2023-01-29T00:15:23.666Z,0.99
2023-01-29T00:17:51.598Z,0.92
2023-01-29T00:20:19.641Z,0.97
2023-01-29T00:22:47.724Z,0.83
2023-01-29T00:25:15.559Z,0.70
2023-01-29T00:27:44.863Z,0.72
2023-01-29T00:30:13.331Z,0.69
2023-01-29T00:32:41.562Z,0.69
2023-01-29T00:35:09.857Z,0.72
2023-01-29T00:37:38.147Z,0.71
2023-01-29T00:40:06.561Z,0.80
2023-01-29T00:42:52.752Z,0.77
2023-01-29T00:45:20.664Z,0.68
2023-01-29T00:47:48.523Z,0.63
2023-01-29T00:50:16.734Z,0.61
2023-01-29T00:52:44.750Z,0.59
2023-01-29T00:55:12.691Z,0.50
2023-01-29T00:57:40.514Z,0.58
2023-01-29T01:00:15.028Z,0.62
2023-01-29T01:03:02.481Z,0.67
2023-01-29T01:05:30.367Z,0.71
2023-01-29T01:07:59.477Z,0.78
2023-01-29T01:10:31.769Z,0.79
2023-01-29T01:13:05.650Z,0.83
2023-01-29T01:15:39.359Z,0.82
2023-01-29T01:18:07.523Z,0.74
2023-01-29T01:20:36.903Z,0.73
2023-01-29T01:23:05.423Z,0.70
2023-01-29T01:25:33.255Z,0.63
2023-01-29T01:28:01.654Z,0.54
2023-01-29T01:30:29.536Z,0.52
2023-01-29T01:32:57.463Z,0.51
2023-01-29T01:35:25.279Z,0.42
2023-01-29T01:37:53.085Z,0.44
2023-01-29T01:40:22.866Z,0.44
2023-01-29T01:42:59.908Z,0.48
2023-01-29T01:45:30.725Z,0.44
2023-01-29T01:48:13.225Z,0.44
2023-01-29T01:50:47.051Z,0.44
2023-01-29T01:53:19.691Z,0.49
2023-01-29T01:56:01.545Z,0.55
2023-01-29T01:58:39.317Z,0.56
2023-01-29T02:01:09.180Z,0.51
2023-01-29T02:04:02.146Z,0.54
2023-01-29T02:06:50.065Z,0.45
2023-01-29T02:09:33.763Z,0.55
2023-01-29T02:12:11.756Z,0.54
2023-01-29T02:14:41.768Z,0.66
2023-01-29T02:17:17.926Z,0.65
2023-01-29T02:20:26.625Z,0.65
2023-01-29T02:22:56.194Z,0.59
2023-01-29T02:25:40.862Z,0.65
2023-01-29T02:28:38.069Z,0.46
2023-01-29T02:31:35.601Z,0.36
2023-01-29T02:34:12.743Z,0.29
2023-01-29T02:36:40.510Z,0.22
2023-01-29T02:39:23.629Z,0.20
2023-01-29T02:42:01.892Z,0.12
2023-01-29T02:44:42.517Z,0.17
2023-01-29T02:47:22.350Z,0.21
2023-01-29T02:50:33.412Z,0.33
2023-01-29T02:53:22.603Z,0.40
2023-01-29T02:55:53.626Z,0.50
2023-01-29T02:58:38.627Z,0.47
2023-01-29T03:01:16.381Z,0.41
2023-01-29T03:03:49.559Z,0.39
2023-01-29T03:06:53.434Z,0.40
2023-01-29T03:09:30.245Z,0.44
2023-01-29T03:12:19.928Z,0.57
2023-01-29T03:15:09.768Z,0.71
2023-01-29T03:17:47.202Z,0.74
2023-01-29T03:20:20.879Z,0.82
2023-01-29T03:22:56.962Z,0.88
2023-01-29T03:25:45.799Z,0.88
2023-01-29T03:28:36.203Z,1.02
2023-01-29T03:31:26.905Z,1.04
2023-01-29T03:34:04.466Z,1.11
2023-01-29T03:36:45.593Z,1.05
2023-01-29T03:39:16.329Z,0.99
2023-01-29T03:41:50.159Z,0.97
2023-01-29T03:44:29.062Z,0.91
2023-01-29T03:47:14.955Z,0.95
2023-01-29T03:49:59.282Z,0.93
2023-01-29T03:52:46.145Z,0.90
2023-01-29T03:55:13.964Z,1.00
2023-01-29T03:57:58.532Z,1.03
2023-01-29T04:00:38.997Z,1.01
2023-01-29T04:03:24.701Z,1.02
2023-01-29T04:06:10.158Z,1.02
2023-01-29T04:09:01.157Z,1.09
2023-01-29T04:11:31.547Z,1.11
2023-01-29T04:14:00.201Z,1.15
2023-01-29T04:16:33.972Z,1.19
2023-01-29T04:19:35.116Z,1.20
2023-01-29T04:22:31.476Z,1.29
2023-01-29T04:25:16.167Z,1.42
2023-01-29T04:28:17.914Z,1.42
2023-01-29T04:31:00.285Z,1.38
2023-01-29T04:33:51.882Z,1.27
2023-01-29T04:36:39.586Z,1.37
2023-01-29T04:39:21.301Z,1.39
2023-01-29T04:42:01.066Z,1.42
2023-01-29T04:44:56.275Z,1.45
2023-01-29T04:47:35.276Z,1.41
2023-01-29T04:50:15.445Z,1.37
2023-01-29T04:52:46.454Z,1.26
2023-01-29T04:55:22.055Z,1.20
2023-01-29T04:58:22.376Z,1.16
2023-01-29T05:00:54.477Z,1.09
2023-01-29T05:03:27.078Z,1.05
2023-01-29T05:05:57.487Z,1.03
2023-01-29T05:08:28.453Z,0.98
2023-01-29T05:10:59.398Z,0.92
2023-01-29T05:13:30.204Z,0.96
2023-01-29T05:16:00.042Z,1.02
2023-01-29T05:18:29.583Z,0.99
2023-01-29T05:21:00.270Z,0.97
2023-01-29T05:23:28.042Z,0.98
2023-01-29T05:25:56.905Z,0.97
2023-01-29T05:28:24.896Z,1.02
2023-01-29T05:30:55.422Z,1.02
2023-01-29T05:33:29.244Z,0.99
2023-01-29T05:35:59.669Z,0.89
2023-01-29T05:38:27.697Z,0.86
2023-01-29T05:40:58.401Z,0.82
2023-01-29T05:43:26.569Z,0.80
2023-01-29T05:46:01.194Z,0.79
2023-01-29T05:48:29.837Z,0.76
2023-01-29T05:51:01.998Z,0.71
2023-01-29T05:53:31.107Z,0.64
2023-01-29T05:56:02.588Z,0.62
2023-01-29T05:58:31.996Z,0.61
2023-01-29T06:01:09.329Z,0.58
2023-01-29T06:03:37.256Z,0.69
2023-01-29T06:06:05.303Z,0.62
2023-01-29T06:08:33.167Z,0.61
2023-01-29T06:11:01.380Z,0.56
2023-01-29T06:13:29.249Z,0.46
2023-01-29T06:15:57.140Z,0.42
2023-01-29T06:18:24.989Z,0.38
2023-01-29T06:20:52.808Z,0.34
2023-01-29T06:23:20.630Z,0.31
2023-01-29T06:25:48.409Z,0.31
2023-01-29T06:28:16.282Z,0.34
2023-01-29T06:30:44.159Z,0.43
2023-01-29T06:33:11.954Z,0.46
2023-01-29T06:35:39.764Z,0.60
2023-01-29T06:38:07.592Z,0.73
2023-01-29T06:40:35.440Z,0.62
2023-01-29T06:43:03.308Z,0.56
2023-01-29T06:45:31.201Z,0.46
2023-01-29T06:48:01.332Z,0.51
2023-01-29T06:50:29.386Z,0.44
2023-01-29T06:52:59.133Z,0.43
2023-01-29T06:55:27.011Z,0.45
2023-01-29T06:57:54.835Z,0.35
2023-01-29T07:00:22.824Z,0.40
2023-01-29T07:02:50.627Z,0.47
2023-01-29T07:05:18.560Z,0.47
2023-01-29T07:07:46.409Z,0.47
2023-01-29T07:10:14.479Z,0.53
2023-01-29T07:12:42.582Z,0.62
2023-01-29T07:15:12.756Z,0.76
2023-01-29T07:17:40.667Z,0.74
2023-01-29T07:20:09.362Z,0.62
2023-01-29T07:22:37.324Z,0.57
2023-01-29T07:25:05.749Z,0.69
2023-01-29T07:27:33.690Z,0.77
2023-01-29T07:30:01.596Z,0.75
2023-01-29T07:32:29.493Z,0.83
2023-01-29T07:34:57.398Z,0.93
2023-01-29T07:37:25.320Z,1.19
2023-01-29T07:39:53.117Z,1.24
2023-01-29T07:42:20.977Z,1.15
2023-01-29T07:44:48.947Z,1.14
2023-01-29T07:47:17.340Z,1.10
2023-01-29T07:49:45.263Z,1.00
2023-01-29T07:52:13.140Z,0.93
2023-01-29T07:54:40.988Z,0.96
2023-01-29T07:57:08.832Z,1.01
2023-01-29T07:59:36.673Z,1.00
2023-01-29T08:02:04.797Z,1.10
2023-01-29T08:04:32.756Z,1.48
2023-01-29T08:07:00.748Z,1.80
2023-01-29T08:09:28.640Z,2.16
2023-01-29T08:11:56.850Z,2.46
2023-01-29T08:14:24.632Z,2.76
2023-01-29T08:16:52.633Z,3.05
2023-01-29T08:19:20.424Z,3.20
2023-01-29T08:21:49.091Z,3.38
2023-01-29T08:24:17.228Z,3.54
2023-01-29T08:26:45.283Z,3.96
2023-01-29T08:29:13.439Z,4.19
2023-01-29T08:31:41.357Z,4.24
2023-01-29T08:34:09.307Z,4.32
2023-01-29T08:36:37.171Z,4.54
2023-01-29T08:39:05.176Z,4.66
2023-01-29T08:41:33.544Z,4.73
2023-01-29T08:44:04.369Z,4.82
2023-01-29T08:46:32.437Z,5.14
2023-01-29T08:49:00.297Z,5.49
2023-01-29T08:51:28.423Z,5.64
2023-01-29T08:53:56.460Z,5.71
2023-01-29T08:56:24.309Z,5.85
2023-01-29T08:58:52.560Z,5.90
2023-01-29T09:01:20.467Z,5.86
2023-01-29T09:03:48.451Z,5.83
2023-01-29T09:06:16.354Z,5.88
2023-01-29T09:08:44.519Z,5.94
2023-01-29T09:11:12.624Z,6.13
2023-01-29T09:13:40.631Z,6.17
2023-01-29T09:16:09.607Z,6.09
2023-01-29T09:18:37.416Z,6.24
2023-01-29T09:21:05.779Z,6.40
2023-01-29T09:23:34.158Z,6.36
2023-01-29T09:26:02.153Z,6.61
2023-01-29T09:28:30.315Z,6.73
2023-01-29T09:31:03.176Z,6.71
2023-01-29T09:33:31.325Z,6.62
2023-01-29T09:35:59.233Z,6.82
2023-01-29T09:38:27.220Z,6.82
2023-01-29T09:41:09.603Z,7.04
2023-01-29T09:43:52.824Z,7.11
2023-01-29T09:46:40.784Z,7.13
2023-01-29T09:49:21.329Z,7.13
2023-01-29T09:52:17.230Z,7.08
2023-01-29T09:55:11.337Z,7.17
2023-01-29T09:57:49.687Z,7.16
2023-01-29T10:00:37.828Z,7.23
2023-01-29T10:03:17.069Z,7.31
2023-01-29T10:06:03.573Z,7.35
2023-01-29T10:08:48.600Z,7.35
2023-01-29T10:11:26.185Z,7.32
2023-01-29T10:14:06.228Z,7.40
2023-01-29T10:16:58.391Z,7.46
2023-01-29T10:19:32.677Z,7.44
2023-01-29T10:22:09.635Z,7.50
2023-01-29T10:24:58.817Z,7.53
2023-01-29T10:27:33.355Z,7.45
2023-01-29T10:30:07.226Z,7.51
2023-01-29T10:32:37.373Z,7.53
2023-01-29T10:35:20.083Z,7.55
2023-01-29T10:37:52.366Z,7.60
2023-01-29T10:40:45.134Z,7.62
2023-01-29T10:43:33.136Z,7.77
2023-01-29T10:46:10.387Z,7.68
2023-01-29T10:48:48.083Z,7.75
2023-01-29T10:51:22.763Z,7.90
2023-01-29T10:54:02.184Z,8.02
2023-01-29T10:56:45.342Z,8.02
2023-01-29T10:59:37.223Z,7.92
2023-01-29T11:02:15.523Z,7.96
2023-01-29T11:04:43.586Z,7.96
2023-01-29T11:07:13.345Z,7.93
2023-01-29T11:10:10.629Z,8.10
2023-01-29T11:12:39.523Z,8.12
2023-01-29T11:15:23.318Z,7.96
2023-01-29T11:18:14.386Z,8.13
2023-01-29T11:20:46.551Z,8.20
2023-01-29T11:23:28.544Z,8.14
2023-01-29T11:25:58.468Z,8.17
2023-01-29T11:28:44.830Z,8.12
2023-01-29T11:31:19.885Z,8.17
2023-01-29T11:33:49.060Z,8.25
2023-01-29T11:36:38.469Z,8.27
2023-01-29T11:39:15.857Z,8.17
2023-01-29T11:41:48.064Z,8.20
2023-01-29T11:44:29.534Z,8.11
2023-01-29T11:47:24.102Z,8.27
2023-01-29T11:49:55.558Z,8.43
2023-01-29T11:52:28.850Z,8.45
2023-01-29T11:55:04.138Z,8.43
2023-01-29T11:57:38.917Z,8.38
2023-01-29T12:00:08.764Z,8.37
2023-01-29T12:02:42.201Z,8.24
2023-01-29T12:05:19.083Z,8.58
2023-01-29T12:07:51.014Z,8.85
2023-01-29T12:10:42.951Z,9.09
2023-01-29T12:13:11.025Z,9.37
2023-01-29T12:15:40.259Z,9.65
2023-01-29T12:18:35.327Z,9.36
2023-01-29T12:21:16.062Z,9.14
2023-01-29T12:23:49.990Z,9.21
2023-01-29T12:26:52.288Z,9.00
2023-01-29T12:29:45.341Z,9.18
2023-01-29T12:33:15.240Z,9.01
2023-01-29T12:35:56.536Z,8.92
2023-01-29T12:38:24.826Z,8.71
2023-01-29T12:41:09.697Z,8.63
2023-01-29T12:43:49.584Z,8.85
2023-01-29T12:46:30.740Z,9.03
2023-01-29T12:49:03.379Z,9.31
2023-01-29T12:51:45.890Z,9.27
2023-01-29T12:54:20.770Z,9.48
2023-01-29T12:56:53.340Z,9.18
2023-01-29T12:59:44.501Z,9.45
2023-01-29T13:02:34.101Z,9.61
2023-01-29T13:05:47.259Z,9.53
2023-01-29T13:08:21.130Z,9.52
2023-01-29T13:10:52.416Z,9.53
2023-01-29T13:13:34.983Z,9.12
2023-01-29T13:16:07.565Z,9.32
2023-01-29T13:18:46.910Z,9.57
2023-01-29T13:21:24.713Z,9.73
2023-01-29T13:23:59.440Z,9.91
2023-01-29T13:26:28.257Z,9.79
2023-01-29T13:28:56.101Z,9.50
2023-01-29T13:31:41.474Z,9.53
2023-01-29T13:34:47.756Z,9.42
2023-01-29T13:37:46.912Z,9.33
2023-01-29T13:40:30.423Z,9.35
2023-01-29T13:43:00.561Z,9.62
2023-01-29T13:45:36.193Z,9.52
2023-01-29T13:48:10.518Z,9.43
2023-01-29T13:50:43.470Z,9.51
2023-01-29T13:53:24.522Z,9.07
2023-01-29T13:55:52.395Z,9.20
2023-01-29T13:58:32.043Z,9.17
2023-01-29T14:01:01.725Z,8.93
2023-01-29T14:03:39.929Z,8.83
2023-01-29T14:06:44.366Z,8.77
2023-01-29T14:09:44.606Z,8.77
2023-01-29T14:12:24.674Z,8.82
2023-01-29T14:14:55.661Z,8.66
2023-01-29T14:17:26.034Z,8.71
2023-01-29T14:20:03.770Z,8.47
2023-01-29T14:22:33.868Z,8.42
2023-01-29T14:25:05.827Z,8.27
2023-01-29T14:27:35.944Z,8.06
2023-01-29T14:30:16.834Z,8.30
2023-01-29T14:32:49.492Z,8.18
2023-01-29T14:35:22.535Z,8.20
2023-01-29T14:37:54.933Z,8.19
2023-01-29T14:40:25.434Z,8.28
2023-01-29T14:43:07.590Z,7.97
2023-01-29T14:45:41.962Z,8.12
2023-01-29T14:48:09.817Z,8.06
2023-01-29T14:50:38.048Z,8.18
2023-01-29T14:53:29.706Z,8.24
2023-01-29T14:56:11.266Z,8.21
2023-01-29T14:58:45.217Z,7.79
2023-01-29T15:01:27.192Z,7.90
2023-01-29T15:04:05.322Z,7.94
2023-01-29T15:06:46.998Z,7.93
2023-01-29T15:09:42.651Z,8.00
2023-01-29T15:12:28.990Z,7.87
2023-01-29T15:15:26.588Z,7.90
2023-01-29T15:18:09.335Z,7.93
2023-01-29T15:20:41.881Z,7.91
2023-01-29T15:23:25.908Z,7.93
2023-01-29T15:25:56.963Z,7.87
2023-01-29T15:28:25.253Z,7.87
2023-01-29T15:30:59.469Z,7.73
2023-01-29T15:33:28.498Z,7.71
2023-01-29T15:36:06.954Z,7.64
2023-01-29T15:38:35.789Z,7.53
2023-01-29T15:41:17.633Z,7.46
2023-01-29T15:43:51.838Z,7.56
2023-01-29T15:46:30.751Z,7.52
2023-01-29T15:49:02.677Z,7.43
2023-01-29T15:51:31.779Z,7.41
2023-01-29T15:54:01.002Z,7.37
2023-01-29T15:56:35.140Z,7.32
2023-01-29T15:59:09.830Z,7.23
2023-01-29T16:01:37.901Z,7.16
2023-01-29T16:04:06.308Z,7.04
2023-01-29T16:06:38.043Z,6.93
2023-01-29T16:09:07.582Z,6.88
2023-01-29T16:11:35.923Z,6.76
2023-01-29T16:14:05.486Z,6.55
2023-01-29T16:16:33.283Z,6.50
2023-01-29T16:19:01.632Z,6.42
2023-01-29T16:21:37.461Z,6.32
2023-01-29T16:24:12.011Z,6.30
2023-01-29T16:26:45.244Z,6.27
2023-01-29T16:29:19.427Z,6.25
2023-01-29T16:31:48.375Z,6.14
2023-01-29T16:34:26.901Z,6.09
2023-01-29T16:36:55.838Z,6.05
2023-01-29T16:39:28.940Z,5.89
2023-01-29T16:42:20.196Z,5.76
2023-01-29T16:44:53.174Z,5.64
2023-01-29T16:47:34.469Z,5.62
2023-01-29T16:50:22.906Z,5.55
2023-01-29T16:53:01.232Z,5.46
2023-01-29T16:55:47.217Z,5.43
2023-01-29T16:58:29.028Z,5.37
2023-01-29T17:01:10.301Z,5.29
2023-01-29T17:03:40.375Z,5.33
2023-01-29T17:06:13.888Z,5.38
2023-01-29T17:08:44.278Z,5.28
2023-01-29T17:11:23.660Z,5.26
2023-01-29T17:13:51.595Z,5.24
2023-01-29T17:16:32.371Z,5.17
2023-01-29T17:19:01.212Z,5.06
2023-01-29T17:21:30.672Z,4.97
2023-01-29T17:23:58.480Z,4.87
2023-01-29T17:26:26.578Z,4.82
2023-01-29T17:28:55.286Z,4.74
2023-01-29T17:31:23.311Z,4.70
2023-01-29T17:33:51.260Z,4.64
2023-01-29T17:36:19.616Z,4.61
2023-01-29T17:38:48.926Z,4.57
2023-01-29T17:41:30.611Z,4.57
2023-01-29T17:43:58.499Z,4.53
2023-01-29T17:46:27.661Z,4.46
2023-01-29T17:48:55.695Z,4.42
2023-01-29T17:51:25.024Z,4.37
2023-01-29T17:53:53.058Z,4.37
2023-01-29T17:56:30.711Z,4.51
2023-01-29T17:58:59.526Z,4.63
2023-01-29T18:01:27.610Z,4.64
2023-01-29T18:03:56.402Z,4.48
2023-01-29T18:06:29.967Z,4.46
2023-01-29T18:08:58.645Z,4.32
2023-01-29T18:11:27.077Z,4.20
2023-01-29T18:13:55.919Z,4.07
2023-01-29T18:16:24.832Z,3.94
2023-01-29T18:18:53.436Z,3.90
2023-01-29T18:21:21.234Z,3.88
2023-01-29T18:23:49.095Z,3.85
2023-01-29T18:26:17.890Z,3.87
2023-01-29T18:28:46.660Z,3.86
2023-01-29T18:31:14.956Z,3.73
2023-01-29T18:33:42.989Z,3.81
2023-01-29T18:36:10.869Z,3.80
2023-01-29T18:38:38.762Z,3.81
2023-01-29T18:41:10.771Z,3.78
2023-01-29T18:43:40.884Z,3.73
2023-01-29T18:46:09.877Z,3.73
2023-01-29T18:48:37.816Z,3.73
2023-01-29T18:51:06.254Z,3.72
2023-01-29T18:53:34.160Z,3.65
2023-01-29T18:56:06.683Z,3.59
2023-01-29T18:58:36.316Z,3.56
2023-01-29T19:01:09.667Z,3.57
2023-01-29T19:03:43.216Z,3.48
2023-01-29T19:06:12.313Z,3.40
2023-01-29T19:08:43.006Z,3.30
2023-01-29T19:11:12.923Z,3.28
2023-01-29T19:13:42.630Z,3.25
2023-01-29T19:16:12.745Z,3.19
2023-01-29T19:18:43.154Z,3.18
2023-01-29T19:21:14.180Z,3.16
2023-01-29T19:23:43.703Z,3.16
2023-01-29T19:26:20.227Z,3.14
2023-01-29T19:28:49.007Z,3.11
2023-01-29T19:31:17.801Z,3.04
2023-01-29T19:33:51.874Z,2.98
2023-01-29T19:36:20.775Z,2.91
2023-01-29T19:38:49.374Z,2.85
2023-01-29T19:41:20.140Z,2.91
2023-01-29T19:43:51.305Z,2.87
2023-01-29T19:46:20.767Z,2.94
2023-01-29T19:48:49.267Z,2.91
2023-01-29T19:51:17.724Z,2.78
2023-01-29T19:53:45.568Z,2.79
2023-01-29T19:56:20.394Z,2.89
2023-01-29T19:58:57.563Z,2.83
2023-01-29T20:01:25.672Z,2.99
2023-01-29T20:03:58.197Z,2.98
2023-01-29T20:06:31.786Z,2.86
2023-01-29T20:09:03.049Z,2.74
2023-01-29T20:11:31.743Z,2.78
2023-01-29T20:14:00.522Z,2.63
2023-01-29T20:16:28.733Z,2.63
2023-01-29T20:19:14.234Z,2.56
2023-01-29T20:21:49.093Z,2.48
2023-01-29T20:24:17.302Z,2.41
2023-01-29T20:26:45.465Z,2.36
2023-01-29T20:29:14.525Z,2.31
2023-01-29T20:31:42.696Z,2.33
2023-01-29T20:34:10.642Z,2.27
2023-01-29T20:36:38.724Z,2.30
2023-01-29T20:39:06.819Z,2.28
2023-01-29T20:41:34.828Z,2.34
2023-01-29T20:44:02.851Z,2.23
2023-01-29T20:46:31.005Z,2.24
2023-01-29T20:48:59.128Z,2.25
2023-01-29T20:51:27.447Z,2.30
2023-01-29T20:54:08.891Z,2.29
2023-01-29T20:56:42.819Z,2.20
2023-01-29T20:59:13.355Z,2.19
2023-01-29T21:01:41.874Z,2.08
2023-01-29T21:04:09.973Z,2.07
2023-01-29T21:06:37.918Z,2.05
2023-01-29T21:09:05.930Z,2.07
2023-01-29T21:11:35.439Z,2.05
2023-01-29T21:14:03.607Z,1.91
2023-01-29T21:16:31.596Z,1.92
2023-01-29T21:19:00.199Z,1.93
2023-01-29T21:21:28.161Z,2.04
2023-01-29T21:23:56.209Z,1.99
2023-01-29T21:26:24.854Z,1.97
2023-01-29T21:28:52.851Z,1.90
2023-01-29T21:31:20.827Z,1.76
2023-01-29T21:33:48.950Z,1.73
2023-01-29T21:36:16.931Z,1.61
2023-01-29T21:38:44.801Z,1.59
2023-01-29T21:41:13.430Z,1.56
2023-01-29T21:43:41.585Z,1.55
2023-01-29T21:46:12.321Z,1.53
2023-01-29T21:48:40.805Z,1.51
2023-01-29T21:51:09.128Z,1.54
2023-01-29T21:53:37.392Z,1.60
2023-01-29T21:56:06.275Z,1.64
2023-01-29T21:58:34.163Z,1.66
2023-01-29T22:01:35.764Z,1.63
2023-01-29T22:03:50.007Z,1.63
2023-01-29T22:06:18.420Z,1.61
2023-01-29T22:08:49.569Z,1.64
2023-01-29T22:11:18.079Z,1.64
2023-01-29T22:13:46.003Z,1.59
2023-01-29T22:16:13.980Z,1.64
2023-01-29T22:18:42.088Z,1.58
2023-01-29T22:21:10.081Z,1.57
2023-01-29T22:23:38.291Z,1.59
2023-01-29T22:26:07.657Z,1.65
2023-01-29T22:28:35.733Z,1.61
2023-01-29T22:31:05.321Z,1.57
2023-01-29T22:33:33.602Z,1.51
2023-01-29T22:36:01.637Z,1.45
2023-01-29T22:38:29.819Z,1.40
2023-01-29T22:40:57.971Z,1.42
2023-01-29T22:43:29.486Z,1.39
2023-01-29T22:45:57.360Z,1.42
2023-01-29T22:48:25.622Z,1.44
2023-01-29T22:51:10.162Z,1.50
2023-01-29T22:53:53.540Z,1.55
2023-01-29T22:56:25.489Z,1.51
2023-01-29T22:58:55.494Z,1.54
2023-01-29T23:01:25.833Z,1.45
2023-01-29T23:03:53.846Z,1.32
2023-01-29T23:06:22.001Z,1.24
2023-01-29T23:08:50.975Z,1.18
2023-01-29T23:11:21.348Z,1.13
2023-01-29T23:13:49.121Z,0.97
2023-01-29T23:16:18.436Z,0.95
2023-01-29T23:18:54.269Z,0.92
2023-01-29T23:21:25.285Z,0.96
2023-01-29T23:23:55.520Z,0.96
2023-01-29T23:26:42.017Z,0.93
2023-01-29T23:29:10.251Z,0.92
2023-01-29T23:31:38.576Z,0.93
2023-01-29T23:34:06.585Z,0.94
2023-01-29T23:36:34.449Z,0.91
2023-01-29T23:39:02.432Z,0.88
2023-01-29T23:41:30.297Z,0.83
2023-01-29T23:43:58.119Z,0.85
2023-01-29T23:46:25.981Z,0.87
2023-01-29T23:48:53.801Z,0.90
2023-01-29T23:51:21.647Z,0.95
2023-01-29T23:53:49.517Z,0.96
2023-01-29T23:56:17.488Z,0.97
2023-01-29T23:58:45.833Z,0.89
